Time;durP1;ratioP1;P1;durP2;ratioP2;P2;SDS_P1;SDS_P2;PMS_P1;PMS_P2;Temp;Humidity;BMP_temperature;BMP_pressure;BME280_temperature;BME280_humidity;BME280_pressure;Samples;Min_cycle;Max_cycle;Signal;HPM_P1;HPM_P2
2021/05/23 00:01:20;;;;;;;;;;;;;;;4.67;100.00;98176.72;5055499;28;20032;-74
2021/05/23 00:03:47;;;;;;;;;;;;;;;4.64;100.00;98171.22;5055237;28;19928;-74
2021/05/23 00:06:15;;;;;;;;;;;;;;;4.59;100.00;98171.66;5055648;28;19925;-74
2021/05/23 00:08:42;;;;;;;;;;;;;;;4.55;100.00;98177.22;5055397;28;19992;-74
2021/05/23 00:11:09;;;;;;;;;;;;;;;4.53;100.00;98181.59;5055536;28;19975;-74
2021/05/23 00:13:39;;;;;;;;;;;;;;;4.42;100.00;98187.19;5055171;28;20164;-74
2021/05/23 00:16:08;;;;;;;;;;;;;;;4.48;100.00;98179.22;5055264;28;19925;-74
2021/05/23 00:18:38;;;;;;;;;;;;;;;4.52;100.00;98180.00;5055194;28;19988;-74
2021/05/23 00:21:06;;;;;;;;;;;;;;;4.65;100.00;98179.09;5054221;28;19925;-74
2021/05/23 00:23:33;;;;;;;;;;;;;;;4.83;100.00;98177.00;5054965;28;19925;-74
2021/05/23 00:26:01;;;;;;;;;;;;;;;4.92;100.00;98182.09;5055205;28;19925;-74
2021/05/23 00:28:28;;;;;;;;;;;;;;;4.99;100.00;98182.81;5087394;28;19924;-74
2021/05/23 00:31:05;;;;;;;;;;;;;;;5.01;100.00;98180.41;5054927;28;19925;-74
2021/05/23 00:33:33;;;;;;;;;;;;;;;5.02;100.00;98176.47;5055126;28;19931;-74
2021/05/23 00:36:00;;;;;;;;;;;;;;;5.01;100.00;98174.13;5055074;28;19932;-74
2021/05/23 00:38:27;;;;;;;;;;;;;;;4.97;100.00;98182.44;5054842;28;19929;-74
2021/05/23 00:40:54;;;;;;;;;;;;;;;5.00;100.00;98187.16;5054898;28;19928;-73
2021/05/23 00:43:22;;;;;;;;;;;;;;;5.01;100.00;98185.94;5054754;28;19931;-74
2021/05/23 00:45:49;;;;;;;;;;;;;;;5.03;100.00;98189.09;5069985;28;19924;-74
2021/05/23 00:48:17;;;;;;;;;;;;;;;5.04;100.00;98190.69;5053553;28;19925;-74
2021/05/23 00:50:44;;;;;;;;;;;;;;;5.02;100.00;98187.53;5054678;28;19925;-74
2021/05/23 00:53:12;;;;;;;;;;;;;;;4.98;100.00;98188.78;5054631;28;19982;-74
2021/05/23 00:55:39;;;;;;;;;;;;;;;5.02;100.00;98189.53;5054528;28;20015;-74
2021/05/23 00:58:07;;;;;;;;;;;;;;;5.00;100.00;98191.91;5054438;28;19933;-74
2021/05/23 01:00:44;;;;;;;;;;;;;;;4.96;100.00;98191.94;5054142;28;19931;-74
2021/05/23 01:05:53;;;;;;;;;;;;;;;4.89;100.00;98200.28;5054550;28;19972;-74
2021/05/23 01:08:21;;;;;;;;;;;;;;;4.94;100.00;98188.00;5069815;28;19978;-74
2021/05/23 01:11:00;;;;;;;;;;;;;;;4.88;100.00;98187.66;5054277;28;20008;-74
2021/05/23 01:13:46;;;;;;;;;;;;;;;4.81;100.00;98182.19;5054178;28;19982;-74
2021/05/23 01:16:15;;;;;;;;;;;;;;;4.66;100.00;98179.91;5053913;28;20112;-74
2021/05/23 01:18:49;;;;;;;;;;;;;;;4.61;100.00;98186.66;5054280;28;19931;-74
2021/05/23 01:21:19;;;;;;;;;;;;;;;4.53;100.00;98187.88;5086437;28;19931;-74
2021/05/23 01:23:50;;;;;;;;;;;;;;;4.57;100.00;98182.34;5086066;28;20383;-74
2021/05/23 01:26:17;;;;;;;;;;;;;;;4.51;100.00;98184.75;5052983;28;19933;-74
2021/05/23 01:28:48;;;;;;;;;;;;;;;4.50;100.00;98183.16;5036015;28;20012;-74
2021/05/23 01:31:18;;;;;;;;;;;;;;;4.45;100.00;98191.91;5052919;28;20023;-74
2021/05/23 01:33:49;;;;;;;;;;;;;;;4.38;100.00;98180.88;5052739;28;19975;-74
2021/05/23 01:36:17;;;;;;;;;;;;;;;4.39;100.00;98192.72;5052925;28;19956;-74
2021/05/23 01:38:44;;;;;;;;;;;;;;;4.37;100.00;98193.13;5053760;28;20257;-74
2021/05/23 01:41:11;;;;;;;;;;;;;;;4.32;100.00;98181.69;5053734;28;19933;-74
2021/05/23 01:43:39;;;;;;;;;;;;;;;4.25;100.00;98181.72;5053448;28;20344;-74
2021/05/23 01:46:06;;;;;;;;;;;;;;;4.22;100.00;98183.31;5085819;28;20035;-74
2021/05/23 01:48:35;;;;;;;;;;;;;;;4.18;100.00;98181.78;5053482;28;19972;-74
2021/05/23 01:51:02;;;;;;;;;;;;;;;4.14;100.00;98184.53;5052295;28;19925;-74
2021/05/23 01:53:30;;;;;;;;;;;;;;;4.05;100.00;98184.19;5053409;28;19951;-74
2021/05/23 01:55:57;;;;;;;;;;;;;;;4.04;100.00;98177.09;5053608;28;19932;-74
2021/05/23 01:58:24;;;;;;;;;;;;;;;3.99;100.00;98179.47;5053210;28;20049;-74
2021/05/23 02:00:52;;;;;;;;;;;;;;;4.09;100.00;98184.19;5053219;28;19928;-74
2021/05/23 02:03:21;;;;;;;;;;;;;;;3.98;100.00;98178.69;5053392;28;20544;-74
2021/05/23 02:05:49;;;;;;;;;;;;;;;3.95;100.00;98184.22;5053282;28;19978;-74
2021/05/23 02:08:18;;;;;;;;;;;;;;;4.02;100.00;98184.19;5053223;28;19970;-74
2021/05/23 02:10:50;;;;;;;;;;;;;;;3.96;100.00;98181.06;5052630;28;20023;-74
2021/05/23 02:13:24;;;;;;;;;;;;;;;3.94;100.00;98188.19;5052302;28;19924;-74
2021/05/23 02:15:51;;;;;;;;;;;;;;;3.86;100.00;98190.19;5053026;28;19934;-74
2021/05/23 02:18:19;;;;;;;;;;;;;;;3.80;100.00;98194.56;5052919;28;19932;-74
2021/05/23 02:20:46;;;;;;;;;;;;;;;3.73;100.00;98189.03;5052634;28;19936;-74
2021/05/23 02:23:21;;;;;;;;;;;;;;;3.66;100.00;98189.06;5053152;28;20299;-74
2021/05/23 02:25:48;;;;;;;;;;;;;;;3.57;100.00;98185.94;5053020;28;19929;-74
2021/05/23 02:28:16;;;;;;;;;;;;;;;3.50;100.00;98185.94;5052761;28;19948;-74
2021/05/23 02:30:49;;;;;;;;;;;;;;;3.51;100.00;98193.06;5053096;28;19990;-74
2021/05/23 02:33:17;;;;;;;;;;;;;;;3.46;100.00;98190.69;5052858;28;20023;-74
2021/05/23 02:35:45;;;;;;;;;;;;;;;3.44;100.00;98193.03;5053005;28;19925;-74
2021/05/23 02:38:13;;;;;;;;;;;;;;;3.31;100.00;98195.44;5052898;28;19925;-73
2021/05/23 02:40:41;;;;;;;;;;;;;;;3.24;100.00;98183.63;5052991;28;19936;-74
2021/05/23 02:43:10;;;;;;;;;;;;;;;3.24;100.00;98183.63;5052793;28;19929;-74
2021/05/23 02:45:37;;;;;;;;;;;;;;;3.33;100.00;98184.00;5052786;28;19932;-74
2021/05/23 02:48:05;;;;;;;;;;;;;;;3.43;100.00;98188.72;5051739;28;20284;-73
2021/05/23 02:50:34;;;;;;;;;;;;;;;3.41;100.00;98189.13;5052660;28;19933;-73
2021/05/23 02:53:02;;;;;;;;;;;;;;;3.41;100.00;98188.31;5053050;28;19932;-74
2021/05/23 02:55:29;;;;;;;;;;;;;;;3.35;100.00;98189.91;5051765;28;19932;-74
2021/05/23 02:57:57;;;;;;;;;;;;;;;3.34;100.00;98189.13;5043378;28;19925;-74
2021/05/23 03:00:24;;;;;;;;;;;;;;;3.45;100.00;98191.88;5051506;28;20411;-73
2021/05/23 03:02:52;;;;;;;;;;;;;;;3.58;100.00;98181.97;5052775;28;19983;-73
2021/05/23 03:05:20;;;;;;;;;;;;;;;3.59;100.00;98180.78;5032375;28;19929;-73
2021/05/23 03:07:49;;;;;;;;;;;;;;;3.82;100.00;98181.13;5052699;28;19979;-73
2021/05/23 03:10:18;;;;;;;;;;;;;;;4.09;100.00;98171.13;5052541;28;20011;-73
2021/05/23 03:12:45;;;;;;;;;;;;;;;4.34;100.00;98174.56;5052413;28;20308;-73
2021/05/23 03:15:16;;;;;;;;;;;;;;;4.52;100.00;98180.00;5052582;28;19929;-73
2021/05/23 03:17:44;;;;;;;;;;;;;;;4.60;100.00;98176.00;5051657;28;19929;-73
2021/05/23 03:20:13;;;;;;;;;;;;;;;4.78;100.00;98182.19;5052723;28;19924;-76
2021/05/23 03:22:41;;;;;;;;;;;;;;;4.86;100.00;98183.72;5052684;28;20387;-75
2021/05/23 03:25:09;;;;;;;;;;;;;;;4.90;100.00;98174.19;5052143;28;20334;-76
2021/05/23 03:27:36;;;;;;;;;;;;;;;5.06;100.00;98184.72;5052949;28;19924;-75
2021/05/23 03:30:06;;;;;;;;;;;;;;;5.13;100.00;98177.19;5052646;28;19933;-75
2021/05/23 03:32:33;;;;;;;;;;;;;;;5.16;100.00;98175.56;5052798;28;19960;-76
2021/05/23 03:35:00;;;;;;;;;;;;;;;5.20;100.00;98182.66;5088170;28;20284;-76
2021/05/23 03:37:28;;;;;;;;;;;;;;;5.27;100.00;98176.25;5056328;28;20010;-75
2021/05/23 03:39:55;;;;;;;;;;;;;;;5.28;100.00;98175.84;5055892;28;20545;-75
2021/05/23 03:42:23;;;;;;;;;;;;;;;5.32;100.00;98170.25;5055060;28;19925;-75
2021/05/23 03:44:50;;;;;;;;;;;;;;;5.36;100.00;98174.56;5048110;28;19983;-75
2021/05/23 03:47:18;;;;;;;;;;;;;;;5.34;100.00;98177.00;5055720;28;20373;-75
2021/05/23 03:49:45;;;;;;;;;;;;;;;5.31;100.00;98169.50;5055336;28;20016;-75
2021/05/23 03:52:12;;;;;;;;;;;;;;;5.11;100.00;98164.91;5055259;28;19932;-76
2021/05/23 03:54:39;;;;;;;;;;;;;;;4.89;100.00;98160.75;5055161;28;19925;-75
2021/05/23 03:57:06;;;;;;;;;;;;;;;4.85;100.00;98160.78;5055647;28;19925;-73
2021/05/23 03:59:33;;;;;;;;;;;;;;;4.74;100.00;98167.59;5087433;28;19925;-73
2021/05/23 04:02:00;;;;;;;;;;;;;;;4.63;100.00;98164.91;5053910;28;19925;-74
2021/05/23 04:04:48;;;;;;;;;;;;;;;4.61;100.00;98161.75;5054233;28;19967;-73
2021/05/23 04:07:16;;;;;;;;;;;;;;;4.56;100.00;98159.41;5055628;28;20015;-73
2021/05/23 04:09:43;;;;;;;;;;;;;;;4.52;100.00;98172.50;5055310;28;19925;-73
2021/05/23 04:12:13;;;;;;;;;;;;;;;4.51;100.00;98168.16;5071269;28;19925;-74
2021/05/23 04:14:40;;;;;;;;;;;;;;;4.48;100.00;98163.44;5041496;28;20379;-74
2021/05/23 04:17:07;;;;;;;;;;;;;;;4.52;100.00;98169.72;5055568;28;19925;-73
2021/05/23 04:19:34;;;;;;;;;;;;;;;4.52;100.00;98169.72;5054907;28;19967;-73
2021/05/23 04:22:02;;;;;;;;;;;;;;;4.58;100.00;98168.09;5055385;28;19989;-74
2021/05/23 04:24:33;;;;;;;;;;;;;;;4.59;100.00;98180.72;5054900;28;19925;-73
2021/05/23 04:27:00;;;;;;;;;;;;;;;4.61;100.00;98181.13;5055390;28;20021;-74
2021/05/23 04:29:27;;;;;;;;;;;;;;;4.63;100.00;98175.97;5054906;28;20411;-73
2021/05/23 04:31:54;;;;;;;;;;;;;;;4.71;100.00;98183.03;5054045;28;19924;-73
2021/05/23 04:34:22;;;;;;;;;;;;;;;4.87;100.00;98186.09;5055106;28;19970;-73
2021/05/23 04:36:49;;;;;;;;;;;;;;;4.84;100.00;98186.09;5087080;28;19931;-73
2021/05/23 04:39:16;;;;;;;;;;;;;;;4.90;100.00;98192.78;5086927;28;19931;-73
2021/05/23 04:41:43;;;;;;;;;;;;;;;5.13;100.00;98199.34;5054978;28;19935;-73
2021/05/23 04:44:10;;;;;;;;;;;;;;;5.10;100.00;98197.34;5054656;28;19924;-73
2021/05/23 04:46:38;;;;;;;;;;;;;;;5.13;100.00;98193.78;5054689;28;19936;-74
2021/05/23 04:49:05;;;;;;;;;;;;;;;5.27;100.00;98193.66;5054595;28;19925;-74
2021/05/23 04:51:32;;;;;;;;;;;;;;;5.19;100.00;98185.81;5054606;28;19924;-73
2021/05/23 04:53:59;;;;;;;;;;;;;;;5.34;100.00;98188.06;5054527;28;19924;-73
2021/05/23 04:56:26;;;;;;;;;;;;;;;5.34;100.00;98190.84;5054839;28;19925;-73
2021/05/23 04:58:56;;;;;;;;;;;;;;;5.36;100.00;98191.19;5052989;28;19928;-73
2021/05/23 05:01:23;;;;;;;;;;;;;;;5.45;100.00;98191.50;5054670;28;19944;-73
2021/05/23 05:03:50;;;;;;;;;;;;;;;5.56;100.00;98185.84;5054332;28;20400;-73
2021/05/23 05:06:17;;;;;;;;;;;;;;;5.74;100.00;98183.69;5054257;28;19925;-74
2021/05/23 05:08:46;;;;;;;;;;;;;;;6.10;100.00;98179.34;5053709;28;19929;-79
2021/05/23 05:11:13;;;;;;;;;;;;;;;6.42;100.00;98181.72;5049901;28;19932;-73
2021/05/23 05:13:40;;;;;;;;;;;;;;;6.56;100.00;98176.75;5053585;28;19973;-73
2021/05/23 05:16:08;;;;;;;;;;;;;;;6.68;100.00;98175.41;5053707;28;21163;-73
2021/05/23 05:18:35;;;;;;;;;;;;;;;6.85;100.00;98174.31;5064423;28;19996;-73
2021/05/23 05:21:03;;;;;;;;;;;;;;;6.95;100.00;98157.50;5053605;28;19932;-73
2021/05/23 05:23:31;;;;;;;;;;;;;;;7.08;100.00;98166.03;5052998;28;20016;-73
2021/05/23 05:26:03;;;;;;;;;;;;;;;7.19;100.00;98155.53;5052662;28;19929;-73
2021/05/23 05:28:30;;;;;;;;;;;;;;;7.18;100.00;98156.72;5053972;28;19931;-73
2021/05/23 05:30:58;;;;;;;;;;;;;;;7.23;100.00;98139.59;5053829;28;19925;-73
2021/05/23 05:33:25;;;;;;;;;;;;;;;7.22;100.00;98133.22;5052776;28;19924;-73
2021/05/23 05:35:52;;;;;;;;;;;;;;;7.33;100.00;98133.84;5035760;28;20004;-73
2021/05/23 05:38:20;;;;;;;;;;;;;;;7.37;100.00;98133.78;5053952;28;19932;-73
2021/05/23 05:40:49;;;;;;;;;;;;;;;7.35;100.00;98125.06;5053732;28;19924;-73
2021/05/23 05:43:16;;;;;;;;;;;;;;;7.36;100.00;98126.66;5053656;28;19925;-73
2021/05/23 05:45:43;;;;;;;;;;;;;;;7.38;100.00;98129.03;5052446;28;19978;-73
2021/05/23 05:48:10;;;;;;;;;;;;;;;7.38;100.00;98118.66;5085883;28;19928;-73
2021/05/23 05:50:38;;;;;;;;;;;;;;;7.43;100.00;98109.84;5052128;28;19924;-73
2021/05/23 05:53:05;;;;;;;;;;;;;;;7.32;100.00;98106.47;5053458;28;19939;-73
2021/05/23 05:55:32;;;;;;;;;;;;;;;7.20;100.00;98101.53;5052841;28;19924;-73
2021/05/23 05:57:59;;;;;;;;;;;;;;;7.27;100.00;98093.84;5053750;28;19936;-73
2021/05/23 06:00:26;;;;;;;;;;;;;;;7.29;100.00;98088.66;5053335;28;19925;-73
2021/05/23 06:02:53;;;;;;;;;;;;;;;7.24;100.00;98086.38;5052111;28;19929;-73
2021/05/23 06:05:20;;;;;;;;;;;;;;;7.30;100.00;98095.00;5051856;28;19983;-73
2021/05/23 06:07:47;;;;;;;;;;;;;;;7.25;100.00;98085.16;5053257;28;19924;-73
2021/05/23 06:10:15;;;;;;;;;;;;;;;7.30;100.00;98092.22;5053196;28;19932;-73
2021/05/23 06:12:42;;;;;;;;;;;;;;;7.37;100.00;98089.31;5052024;28;19960;-73
2021/05/23 06:15:09;;;;;;;;;;;;;;;7.55;100.00;98077.84;5085603;28;19935;-73
2021/05/23 06:17:38;;;;;;;;;;;;;;;7.61;100.00;98076.16;5052395;28;21658;-73
2021/05/23 06:20:06;;;;;;;;;;;;;;;8.12;100.00;98073.47;5068577;28;19935;-73
2021/05/23 06:22:33;;;;;;;;;;;;;;;8.45;100.00;98064.00;5053043;28;19951;-73
2021/05/23 06:25:00;;;;;;;;;;;;;;;8.66;100.00;98057.91;5085137;28;20015;-73
2021/05/23 06:27:27;;;;;;;;;;;;;;;8.71;100.00;98053.81;5052989;28;19960;-73
2021/05/23 06:29:54;;;;;;;;;;;;;;;8.65;100.00;98045.22;5053236;28;19928;-73
2021/05/23 06:32:23;;;;;;;;;;;;;;;8.61;100.00;98033.41;5053016;28;20017;-73
2021/05/23 06:34:50;;;;;;;;;;;;;;;8.56;100.00;98030.34;5052724;28;20015;-73
2021/05/23 06:37:17;;;;;;;;;;;;;;;8.31;100.00;98025.38;5053086;28;19928;-73
2021/05/23 06:39:44;;;;;;;;;;;;;;;8.39;100.00;98021.19;5051865;28;19963;-73
2021/05/23 06:42:13;;;;;;;;;;;;;;;8.32;100.00;98015.00;5051948;28;19975;-73
2021/05/23 06:44:40;;;;;;;;;;;;;;;8.28;100.00;98020.69;5052860;28;19992;-73
2021/05/23 06:47:07;;;;;;;;;;;;;;;8.07;100.00;98021.13;5053038;28;19931;-72
2021/05/23 06:49:35;;;;;;;;;;;;;;;8.00;100.00;98021.28;5052449;28;20262;-73
2021/05/23 06:52:02;;;;;;;;;;;;;;;7.74;100.00;98030.59;5052873;28;19925;-72
2021/05/23 06:54:29;;;;;;;;;;;;;;;7.74;100.00;98033.38;5052845;28;19940;-72
2021/05/23 06:56:56;;;;;;;;;;;;;;;7.62;100.00;98028.47;5052772;28;19925;-74
2021/05/23 06:59:24;;;;;;;;;;;;;;;7.44;100.00;98028.03;5052808;28;19933;-73
2021/05/23 07:01:51;;;;;;;;;;;;;;;7.31;100.00;98024.34;5051559;28;19932;-74
2021/05/23 07:04:23;;;;;;;;;;;;;;;7.61;100.00;98032.47;5049336;28;19925;-75
2021/05/23 07:06:50;;;;;;;;;;;;;;;7.71;100.00;98031.44;5068331;28;20300;-74
2021/05/23 07:09:17;;;;;;;;;;;;;;;7.72;100.00;98023.91;5053379;28;19924;-75
2021/05/23 07:11:44;;;;;;;;;;;;;;;7.82;100.00;98026.44;5056236;28;19932;-74
2021/05/23 07:14:11;;;;;;;;;;;;;;;7.70;100.00;98023.53;5056083;28;19932;-75
2021/05/23 07:16:38;;;;;;;;;;;;;;;7.75;100.00;98029.38;5078578;28;19947;-75
2021/05/23 07:19:05;;;;;;;;;;;;;;;7.84;100.00;98024.03;5055857;28;19925;-75
2021/05/23 07:21:33;;;;;;;;;;;;;;;7.89;100.00;98026.28;5053753;28;19935;-74
2021/05/23 07:24:00;;;;;;;;;;;;;;;7.74;100.00;98024.25;5048810;28;20014;-74
2021/05/23 07:26:27;;;;;;;;;;;;;;;7.88;100.00;98024.72;5052221;28;19925;-74
2021/05/23 07:28:54;;;;;;;;;;;;;;;7.80;100.00;98028.88;5076073;28;19939;-74
2021/05/23 07:31:22;;;;;;;;;;;;;;;7.81;100.00;98013.78;5055493;28;19932;-74
2021/05/23 07:33:49;;;;;;;;;;;;;;;7.88;100.00;98013.59;5054852;28;19929;-73
2021/05/23 07:36:16;;;;;;;;;;;;;;;7.87;100.00;98023.16;5055982;28;19924;-73
2021/05/23 07:38:44;;;;;;;;;;;;;;;7.87;100.00;98023.16;5056054;28;19929;-72
2021/05/23 07:41:11;;;;;;;;;;;;;;;7.98;100.00;98018.13;5055915;28;19929;-72
2021/05/23 07:43:39;;;;;;;;;;;;;;;8.11;100.00;98016.28;5087992;28;20007;-72
2021/05/23 07:46:06;;;;;;;;;;;;;;;8.19;100.00;98020.47;5054343;28;19925;-72
2021/05/23 07:48:34;;;;;;;;;;;;;;;7.97;100.00;98022.13;5055988;28;19924;-73
2021/05/23 07:51:03;;;;;;;;;;;;;;;8.10;100.00;98025.03;5055688;28;20303;-72
2021/05/23 07:53:30;;;;;;;;;;;;;;;7.89;100.00;98020.72;5054272;28;19924;-72
2021/05/23 07:55:57;;;;;;;;;;;;;;;8.05;100.00;98012.44;5055838;28;19931;-73
2021/05/23 07:58:25;;;;;;;;;;;;;;;8.23;100.00;98018.41;5056047;28;19932;-77
2021/05/23 08:00:52;;;;;;;;;;;;;;;8.29;100.00;98016.66;5055351;28;19986;-76
2021/05/23 08:03:19;;;;;;;;;;;;;;;8.31;100.00;98011.47;5055735;28;19952;-75
2021/05/23 08:05:46;;;;;;;;;;;;;;;8.44;100.00;98003.19;5055520;28;19926;-75
2021/05/23 08:08:14;;;;;;;;;;;;;;;8.45;100.00;98013.13;5055703;28;19924;-75
2021/05/23 08:10:41;;;;;;;;;;;;;;;8.25;100.00;98004.84;5054265;28;19928;-77
2021/05/23 08:13:08;;;;;;;;;;;;;;;8.54;100.00;98005.72;5087924;28;19929;-78
2021/05/23 08:15:35;;;;;;;;;;;;;;;8.74;100.00;98003.63;5055191;28;19970;-77
2021/05/23 08:18:02;;;;;;;;;;;;;;;8.80;100.00;98001.88;5055364;28;19925;-77
2021/05/23 08:20:29;;;;;;;;;;;;;;;9.04;100.00;98006.00;5055116;28;19929;-76
2021/05/23 08:22:56;;;;;;;;;;;;;;;9.07;100.00;97999.56;5070568;28;19924;-77
2021/05/23 08:25:23;;;;;;;;;;;;;;;9.26;100.00;98013.78;5046870;28;20019;-77
2021/05/23 08:27:51;;;;;;;;;;;;;;;9.65;100.00;97999.56;5051571;28;20323;-78
2021/05/23 08:30:18;;;;;;;;;;;;;;;9.94;100.00;98000.25;5054500;28;19925;-75
2021/05/23 08:32:49;;;;;;;;;;;;;;;10.21;100.00;97995.84;5056156;28;19932;-75
2021/05/23 08:35:16;;;;;;;;;;;;;;;10.39;100.00;97995.31;5053438;28;19940;-75
2021/05/23 08:37:43;;;;;;;;;;;;;;;10.34;100.00;97999.44;5068430;28;19924;-75
2021/05/23 08:40:11;;;;;;;;;;;;;;;10.35;100.00;97997.41;5054674;28;19932;-75
2021/05/23 08:42:39;;;;;;;;;;;;;;;10.33;100.00;97985.94;5054755;28;19932;-75
2021/05/23 08:45:06;;;;;;;;;;;;;;;10.93;100.00;97993.84;5054626;28;20288;-75
2021/05/23 08:47:44;;;;;;;;;;;;;;;11.47;100.00;97985.16;5054875;28;20361;-75
2021/05/23 08:50:18;;;;;;;;;;;;;;;12.15;100.00;97982.19;5073091;28;19925;-75
2021/05/23 08:52:52;;;;;;;;;;;;;;;12.88;100.00;97974.00;5054758;28;19929;-74
2021/05/23 08:55:20;;;;;;;;;;;;;;;12.28;100.00;97968.84;5054921;28;20243;-74
2021/05/23 08:57:51;;;;;;;;;;;;;;;11.40;100.00;97965.84;5054560;28;19932;-75
2021/05/23 09:00:19;;;;;;;;;;;;;;;11.29;100.00;97957.06;5054295;28;19932;-77
2021/05/23 09:03:00;;;;;;;;;;;;;;;10.89;100.00;97972.84;5048507;28;19952;-77
2021/05/23 09:05:36;;;;;;;;;;;;;;;10.43;100.00;97970.84;5049880;28;19925;-78
2021/05/23 09:08:07;;;;;;;;;;;;;;;10.27;100.00;97973.75;5050454;28;20070;-77
2021/05/23 09:10:36;;;;;;;;;;;;;;;10.39;100.00;97970.94;5050685;28;19936;-77
2021/05/23 09:13:03;;;;;;;;;;;;;;;10.66;100.00;97973.25;5049525;28;19925;-78
2021/05/23 09:15:31;;;;;;;;;;;;;;;10.42;100.00;97977.66;5050060;28;20360;-77
2021/05/23 09:18:03;;;;;;;;;;;;;;;10.37;100.00;97975.41;5050215;28;19925;-78
2021/05/23 09:20:31;;;;;;;;;;;;;;;10.04;100.00;97976.84;5051013;28;19931;-77
2021/05/23 09:22:59;;;;;;;;;;;;;;;9.63;100.00;97974.13;5050164;28;19931;-77
2021/05/23 09:25:27;;;;;;;;;;;;;;;9.43;100.00;97982.66;5052782;28;19924;-77
2021/05/23 09:27:55;;;;;;;;;;;;;;;9.41;100.00;97990.66;5051550;28;19925;-77
2021/05/23 09:30:25;;;;;;;;;;;;;;;9.18;100.00;97990.16;5053330;28;19932;-76
2021/05/23 09:32:55;;;;;;;;;;;;;;;9.14;100.00;97990.22;5054019;28;19924;-76
2021/05/23 09:35:22;;;;;;;;;;;;;;;9.02;100.00;98002.91;5054176;28;19925;-75
2021/05/23 09:38:16;;;;;;;;;;;;;;;8.79;100.00;97991.16;5054182;28;20002;-75
2021/05/23 09:40:44;;;;;;;;;;;;;;;8.54;100.00;97985.47;5051659;28;19946;-75
2021/05/23 09:43:21;;;;;;;;;;;;;;;8.61;100.00;97988.06;5053098;28;19925;-76
2021/05/23 09:45:52;;;;;;;;;;;;;;;8.41;100.00;97979.78;5053471;28;19928;-76
2021/05/23 09:48:24;;;;;;;;;;;;;;;8.92;100.00;97987.22;5085854;28;19933;-75
2021/05/23 09:50:54;;;;;;;;;;;;;;;8.99;100.00;97989.06;5045888;28;20031;-78
2021/05/23 09:53:21;;;;;;;;;;;;;;;9.11;100.00;97991.91;5048161;28;19932;-83
2021/05/23 09:55:51;;;;;;;;;;;;;;;9.87;100.00;97986.53;5049094;28;19973;-89
2021/05/23 09:58:23;;;;;;;;;;;;;;;9.81;100.00;97997.47;5049262;28;19932;-79
2021/05/23 10:00:51;;;;;;;;;;;;;;;9.82;100.00;97992.66;5077869;28;20387;-79
2021/05/23 10:03:25;;;;;;;;;;;;;;;9.84;100.00;97984.63;5066032;28;20304;-78
2021/05/23 10:05:53;;;;;;;;;;;;;;;9.90;100.00;97982.84;5050053;28;20310;-79
2021/05/23 10:08:20;;;;;;;;;;;;;;;10.18;100.00;97985.56;5048445;28;19936;-78
2021/05/23 10:10:47;;;;;;;;;;;;;;;10.38;100.00;97982.56;5082244;28;20021;-78
2021/05/23 10:13:14;;;;;;;;;;;;;;;10.06;100.00;97974.38;5048370;28;19929;-79
2021/05/23 10:15:42;;;;;;;;;;;;;;;9.91;100.00;97971.25;5082706;28;19968;-78
2021/05/23 10:18:09;;;;;;;;;;;;;;;10.11;100.00;97973.84;5051219;28;19929;-78
2021/05/23 10:20:37;;;;;;;;;;;;;;;9.90;100.00;97966.13;5078783;28;19947;-75
2021/05/23 10:23:17;;;;;;;;;;;;;;;9.97;100.00;97971.47;5052766;28;19967;-75
2021/05/23 10:25:46;;;;;;;;;;;;;;;9.51;100.00;97960.94;5049588;28;20007;-75
2021/05/23 10:28:13;;;;;;;;;;;;;;;9.68;100.00;97959.63;5053779;28;19936;-76
2021/05/23 10:30:48;;;;;;;;;;;;;;;9.71;100.00;97964.31;5054372;28;19925;-75
2021/05/23 10:33:15;;;;;;;;;;;;;;;9.98;100.00;97956.31;5032322;28;19936;-79
2021/05/23 10:35:44;;;;;;;;;;;;;;;9.74;100.00;97952.28;5081173;28;20388;-78
2021/05/23 10:38:12;;;;;;;;;;;;;;;10.06;100.00;97952.84;5047691;28;19975;-78
2021/05/23 10:40:50;;;;;;;;;;;;;;;10.47;100.00;97954.72;5048157;28;21543;-78
2021/05/23 10:43:22;;;;;;;;;;;;;;;10.01;100.00;97944.25;5052860;28;20609;-81
2021/05/23 10:46:01;;;;;;;;;;;;;;;9.93;100.00;97935.31;5053800;28;20421;-81
2021/05/23 10:48:29;;;;;;;;;;;;;;;10.40;100.00;97952.19;5040434;28;19931;-77
2021/05/23 10:50:56;;;;;;;;;;;;;;;10.06;100.00;97929.72;5051519;28;19925;-78
2021/05/23 10:53:33;;;;;;;;;;;;;;;10.27;100.00;97940.25;5053398;28;20723;-79
2021/05/23 10:56:00;;;;;;;;;;;;;;;10.31;100.00;97926.97;5068917;28;19925;-75
2021/05/23 10:58:29;;;;;;;;;;;;;;;10.43;100.00;97931.75;5052801;28;19924;-82
2021/05/23 11:00:58;;;;;;;;;;;;;;;10.49;100.00;97930.72;5019067;28;19924;-82
2021/05/23 11:03:27;;;;;;;;;;;;;;;10.67;100.00;97930.91;5070179;28;20352;-83
2021/05/23 11:06:01;;;;;;;;;;;;;;;10.82;100.00;97920.00;5055740;28;19925;-81
2021/05/23 11:08:32;;;;;;;;;;;;;;;10.62;100.00;97905.53;5052981;28;20326;-83
2021/05/23 11:11:00;;;;;;;;;;;;;;;10.57;100.00;97903.34;5036315;28;19925;-81
2021/05/23 11:13:32;;;;;;;;;;;;;;;10.52;100.00;97896.31;5054659;28;19970;-82
2021/05/23 11:16:16;;;;;;;;;;;;;;;10.72;100.00;97893.25;5052493;28;19925;-81
2021/05/23 11:18:44;;;;;;;;;;;;;;;10.76;100.00;97893.88;5054390;28;19929;-82
2021/05/23 11:21:13;;;;;;;;;;;;;;;10.30;100.00;97897.50;5038678;28;19982;-82
2021/05/23 11:23:51;;;;;;;;;;;;;;;10.51;100.00;97891.19;5053235;28;19936;-81
2021/05/23 11:26:19;;;;;;;;;;;;;;;10.69;100.00;97888.56;5035632;28;20287;-81
2021/05/23 11:28:50;;;;;;;;;;;;;;;10.48;100.00;97900.47;5036485;28;19924;-82
2021/05/23 11:31:33;;;;;;;;;;;;;;;9.94;100.00;97894.22;5052814;28;20642;-83
2021/05/23 11:34:02;;;;;;;;;;;;;;;9.91;100.00;97889.53;5089562;28;20301;-83
2021/05/23 11:36:30;;;;;;;;;;;;;;;9.98;100.00;97898.47;5069184;28;20298;-84
2021/05/23 11:38:58;;;;;;;;;;;;;;;10.25;100.00;97887.63;5055603;28;20368;-86
2021/05/23 11:41:32;;;;;;;;;;;;;;;10.40;100.00;97882.38;5068304;28;19978;-86
2021/05/23 11:44:00;;;;;;;;;;;;;;;10.61;100.00;97876.06;5072147;28;19925;-86
2021/05/23 11:46:29;;;;;;;;;;;;;;;11.23;100.00;97863.81;5070556;28;19931;-86
2021/05/23 11:48:59;;;;;;;;;;;;;;;11.37;100.00;97857.69;5047360;28;19925;-86
2021/05/23 11:51:27;;;;;;;;;;;;;;;11.70;100.00;97839.25;5021915;28;19924;-85
2021/05/23 11:53:55;;;;;;;;;;;;;;;11.52;100.00;97839.13;5053943;28;19932;-86
2021/05/23 11:56:29;;;;;;;;;;;;;;;11.44;100.00;97821.06;5055465;28;20300;-85
2021/05/23 11:59:00;;;;;;;;;;;;;;;11.44;100.00;97832.25;5038328;28;19932;-85
2021/05/23 12:01:35;;;;;;;;;;;;;;;11.87;100.00;97837.75;5053226;28;19939;-87
2021/05/23 12:04:12;;;;;;;;;;;;;;;12.12;100.00;97836.72;5037433;28;19964;-87
2021/05/23 12:06:45;;;;;;;;;;;;;;;12.20;100.00;97813.56;5055144;28;19947;-87
2021/05/23 12:09:13;;;;;;;;;;;;;;;12.30;100.00;97800.34;5021516;28;20384;-86
2021/05/23 12:12:00;;;;;;;;;;;;;;;12.52;100.00;97809.41;5071765;28;20299;-87
2021/05/23 12:14:46;;;;;;;;;;;;;;;12.18;100.00;97827.25;5074358;28;20003;-86
2021/05/23 12:17:15;;;;;;;;;;;;;;;12.25;100.00;97815.75;5055006;28;19925;-87
2021/05/23 12:20:03;;;;;;;;;;;;;;;12.58;100.00;97819.53;5039083;28;20387;-89
2021/05/23 12:22:38;;;;;;;;;;;;;;;12.48;100.00;97794.78;5057272;28;19928;-87
2021/05/23 12:25:11;;;;;;;;;;;;;;;12.52;100.00;97803.81;5070949;28;19925;-88
2021/05/23 12:27:41;;;;;;;;;;;;;;;12.43;100.00;97801.75;5088059;28;19932;-87
2021/05/23 12:30:25;;;;;;;;;;;;;;;12.27;100.00;97810.47;5037350;28;19924;-88
2021/05/23 12:32:54;;;;;;;;;;;;;;;11.98;100.00;97796.09;5018244;28;19925;-88
2021/05/23 12:35:31;;;;;;;;;;;;;;;12.31;100.00;97790.72;5062030;28;20447;-88
2021/05/23 12:38:03;;;;;;;;;;;;;;;11.64;100.00;97771.13;5051014;28;19940;-88
2021/05/23 12:40:35;;;;;;;;;;;;;;;11.84;100.00;97773.53;5062295;28;20376;-88
2021/05/23 12:43:11;;;;;;;;;;;;;;;11.76;100.00;97761.06;5055093;28;19924;-87
2021/05/23 12:45:39;;;;;;;;;;;;;;;11.91;100.00;97765.59;5034640;28;19964;-88
2021/05/23 12:48:07;;;;;;;;;;;;;;;11.92;100.00;97760.81;5034823;28;19925;-82
2021/05/23 12:50:37;;;;;;;;;;;;;;;11.30;100.00;97762.88;5054627;28;19925;-85
2021/05/23 12:53:04;;;;;;;;;;;;;;;11.58;100.00;97756.16;5052913;28;20015;-87
2021/05/23 12:55:36;;;;;;;;;;;;;;;11.92;100.00;97758.75;5042267;28;19947;-88
2021/05/23 12:58:04;;;;;;;;;;;;;;;11.89;100.00;97750.53;5020609;28;20458;-87